createdAt,value
2022-11-05T00:09:58.489Z,97628.92
2022-11-05T00:20:01.919Z,97632.36
2022-11-05T00:30:07.347Z,97649.23
2022-11-05T00:40:12.995Z,97667.40
2022-11-05T00:50:17.273Z,97681.14
2022-11-05T01:00:22.871Z,97702.11
2022-11-05T01:10:27.039Z,97707.01
2022-11-05T01:20:30.652Z,97715.77
2022-11-05T01:30:34.102Z,97707.98
2022-11-05T01:40:42.363Z,97709.27
2022-11-05T01:50:46.776Z,97729.30
2022-11-05T02:00:50.226Z,97733.05
2022-11-05T02:10:53.982Z,97735.45
2022-11-05T02:20:59.572Z,97746.32
2022-11-05T02:31:07.841Z,97756.97
2022-11-05T02:41:12.615Z,97761.44
2022-11-05T02:51:16.503Z,97782.60
2022-11-05T03:01:20.285Z,97809.33
2022-11-05T03:11:26.030Z,97819.73
2022-11-05T03:21:29.670Z,97813.21
2022-11-05T03:31:36.709Z,97840.17
2022-11-05T03:41:44.402Z,97847.91
2022-11-05T03:51:56.392Z,97862.60
2022-11-05T04:02:00.540Z,97874.16
2022-11-05T04:12:24.060Z,97875.60
2022-11-05T04:22:47.742Z,97890.83
2022-11-05T04:33:00.304Z,97900.63
2022-11-05T04:43:04.959Z,97902.10
2022-11-05T04:53:09.009Z,97901.23
2022-11-05T05:03:13.155Z,97908.14
2022-11-05T05:13:17.070Z,97914.82
2022-11-05T05:23:20.623Z,97931.30
2022-11-05T05:33:24.497Z,97935.04
2022-11-05T05:43:29.397Z,97948.89
2022-11-05T05:53:33.176Z,97968.45
2022-11-05T06:03:36.709Z,97984.27
2022-11-05T06:13:40.202Z,97987.20
2022-11-05T06:23:45.457Z,98001.27
2022-11-05T06:33:49.120Z,98014.81
2022-11-05T06:43:52.602Z,98034.83
2022-11-05T06:53:55.700Z,98070.92
2022-11-05T07:03:59.411Z,98105.80
2022-11-05T07:14:02.967Z,98123.94
2022-11-05T07:24:08.025Z,98121.14
2022-11-05T07:34:11.561Z,98133.98
2022-11-05T07:54:20.449Z,98165.27
2022-11-05T08:04:24.219Z,98170.49
2022-11-05T08:14:27.003Z,98183.20
2022-11-05T08:24:30.581Z,98196.61
2022-11-05T08:34:34.105Z,98203.08
2022-11-05T08:44:37.656Z,98209.06
2022-11-05T08:54:42.667Z,98209.77
2022-11-05T09:04:46.242Z,98228.52
2022-11-05T09:14:50.012Z,98240.39
2022-11-05T09:24:53.706Z,98239.16
2022-11-05T09:34:59.777Z,98248.61
2022-11-05T09:45:07.521Z,98257.65
2022-11-05T09:55:18.740Z,98264.88
2022-11-05T10:05:22.681Z,98279.91
2022-11-05T10:15:30.454Z,98289.14
2022-11-05T10:25:47.196Z,98285.38
2022-11-05T10:35:51.903Z,98289.11
2022-11-05T10:45:54.942Z,98298.69
2022-11-05T10:55:58.524Z,98303.32
2022-11-05T11:06:07.159Z,98310.77
2022-11-05T11:16:18.194Z,98325.36
2022-11-05T11:26:23.901Z,98327.95
2022-11-05T11:36:43.433Z,98329.34
2022-11-05T11:46:48.555Z,98338.02
2022-11-05T11:56:52.091Z,98349.05
2022-11-05T12:06:57.954Z,98354.23
2022-11-05T12:17:22.663Z,98369.70
2022-11-05T12:27:42.657Z,98373.63
2022-11-05T12:37:46.859Z,98377.30
2022-11-05T12:47:52.762Z,98397.05
2022-11-05T12:58:09.072Z,98422.64
2022-11-05T13:08:15.962Z,98423.94
2022-11-05T13:18:21.446Z,98437.73
2022-11-05T13:28:27.863Z,98448.84
2022-11-05T13:38:51.444Z,98451.67
2022-11-05T13:49:29.792Z,98467.34
2022-11-05T13:59:54.964Z,98483.17
2022-11-05T14:10:01.239Z,98491.58
2022-11-05T14:20:22.841Z,98507.95
2022-11-05T14:30:44.280Z,98514.14
2022-11-05T14:40:47.408Z,98524.20
2022-11-05T14:50:51.688Z,98543.27
2022-11-05T15:00:57.695Z,98556.05
2022-11-05T15:11:05.046Z,98571.71
2022-11-05T15:21:11.554Z,98581.70
2022-11-05T15:31:24.349Z,98586.67
2022-11-05T15:41:31.220Z,98596.64
2022-11-05T15:51:35.058Z,98605.88
2022-11-05T16:01:55.857Z,98622.74
2022-11-05T16:12:25.207Z,98626.00
2022-11-05T16:22:46.531Z,98639.86
2022-11-05T16:32:51.057Z,98650.79
2022-11-05T16:42:55.108Z,98664.45
2022-11-05T16:52:58.985Z,98683.73
2022-11-05T17:03:03.608Z,98695.89
2022-11-05T17:13:07.247Z,98705.04
2022-11-05T17:23:13.109Z,98708.31
2022-11-05T17:33:17.048Z,98716.27
2022-11-05T17:43:21.382Z,98713.69
2022-11-05T17:53:24.942Z,98721.91
2022-11-05T18:03:28.433Z,98725.41
2022-11-05T18:13:32.073Z,98734.91
2022-11-05T18:23:35.603Z,98732.15
2022-11-05T18:33:39.156Z,98747.23
2022-11-05T18:43:42.748Z,98754.70
2022-11-05T18:53:46.363Z,98763.08
2022-11-05T19:03:50.477Z,98765.80
2022-11-05T19:13:54.154Z,98775.52
2022-11-05T19:24:00.701Z,98783.96
2022-11-05T19:34:05.064Z,98803.27
2022-11-05T19:44:08.829Z,98812.08
2022-11-05T19:54:12.796Z,98824.16
2022-11-05T20:04:16.613Z,98845.83
2022-11-05T20:14:20.430Z,98855.49
2022-11-05T20:24:25.596Z,98864.24
2022-11-05T20:34:29.875Z,98869.51
2022-11-05T20:44:33.640Z,98877.96
2022-11-05T20:54:37.533Z,98892.95
2022-11-05T21:04:41.519Z,98892.46
2022-11-05T21:14:45.723Z,98887.84
2022-11-05T21:24:49.385Z,98893.69
2022-11-05T21:34:52.929Z,98902.84
2022-11-05T21:45:00.205Z,98901.30
2022-11-05T21:55:34.851Z,98903.73
2022-11-05T22:05:38.421Z,98909.63
2022-11-05T22:15:42.524Z,98903.76
2022-11-05T22:25:46.628Z,98897.56
2022-11-05T22:35:50.359Z,98900.54
2022-11-05T22:45:54.279Z,98892.73
2022-11-05T22:55:58.522Z,98894.90
2022-11-05T23:06:04.193Z,98900.16
2022-11-05T23:16:26.386Z,98904.69
2022-11-05T23:26:50.482Z,98918.64
2022-11-05T23:47:34.144Z,98939.03
2022-11-05T23:57:37.867Z,98941.84
